createdAt,value
2018-09-25T00:00:44.782Z,8.20
2018-09-25T00:03:18.782Z,8.10
2018-09-25T00:05:52.371Z,3.63
2018-09-25T00:08:26.319Z,1.83
2018-09-25T00:11:00.408Z,5.63
2018-09-25T00:13:34.288Z,4.47
2018-09-25T00:16:08.249Z,3.00
2018-09-25T00:18:41.760Z,2.73
2018-09-25T00:21:15.814Z,3.83
2018-09-25T00:23:49.721Z,5.23
2018-09-25T00:26:23.587Z,3.37
2018-09-25T00:28:57.452Z,5.27
2018-09-25T00:31:31.447Z,7.90
2018-09-25T00:34:05.322Z,3.47
2018-09-25T00:36:38.905Z,4.50
2018-09-25T00:39:13.468Z,4.17
2018-09-25T00:41:47.456Z,5.03
2018-09-25T00:44:21.147Z,5.73
2018-09-25T00:46:55.282Z,4.13
2018-09-25T00:49:29.016Z,2.93
2018-09-25T00:52:02.990Z,4.53
2018-09-25T00:54:37.013Z,3.47
2018-09-25T00:57:10.965Z,5.00
2018-09-25T00:59:44.522Z,4.70
2018-09-25T01:02:18.403Z,4.30
2018-09-25T01:04:52.273Z,3.57
2018-09-25T01:07:25.952Z,9.23
2018-09-25T01:09:59.558Z,5.73
2018-09-25T01:12:33.500Z,4.87
2018-09-25T01:15:07.567Z,7.07
2018-09-25T01:17:41.630Z,9.67
2018-09-25T01:20:15.433Z,5.10
2018-09-25T01:22:49.145Z,6.53
2018-09-25T01:25:23.084Z,6.00
2018-09-25T01:27:56.994Z,7.67
2018-09-25T01:30:30.946Z,6.70
2018-09-25T01:33:05.039Z,8.77
2018-09-25T01:35:39.100Z,6.43
2018-09-25T01:38:13.050Z,6.77
2018-09-25T01:40:47.077Z,6.73
2018-09-25T01:43:20.902Z,7.13
2018-09-25T01:45:54.808Z,9.93
2018-09-25T01:48:28.677Z,4.07
2018-09-25T01:51:02.461Z,8.87
2018-09-25T01:53:36.396Z,7.50
2018-09-25T01:56:10.088Z,6.60
2018-09-25T01:58:43.782Z,5.33
2018-09-25T02:01:17.691Z,6.33
2018-09-25T02:03:51.528Z,5.93
2018-09-25T02:06:25.408Z,5.93
2018-09-25T02:08:59.291Z,5.57
2018-09-25T02:11:33.094Z,5.33
2018-09-25T02:14:06.941Z,4.10
2018-09-25T02:16:40.529Z,4.13
2018-09-25T02:19:14.380Z,11.07
2018-09-25T02:21:48.288Z,6.27
2018-09-25T02:24:21.821Z,6.87
2018-09-25T02:26:55.829Z,6.90
2018-09-25T02:29:29.897Z,7.00
2018-09-25T02:32:03.975Z,5.47
2018-09-25T02:34:37.735Z,5.57
2018-09-25T02:37:11.458Z,6.20
2018-09-25T02:39:45.499Z,3.93
2018-09-25T02:42:19.550Z,6.37
2018-09-25T02:44:53.628Z,8.47
2018-09-25T02:47:27.278Z,6.63
2018-09-25T02:50:01.148Z,7.93
2018-09-25T02:52:34.948Z,6.23
2018-09-25T02:55:08.799Z,4.53
2018-09-25T02:57:42.754Z,4.07
2018-09-25T03:00:16.572Z,5.50
2018-09-25T03:02:50.358Z,7.83
2018-09-25T03:05:24.384Z,7.03
2018-09-25T03:07:58.392Z,4.63
2018-09-25T03:10:32.485Z,4.90
2018-09-25T03:13:06.499Z,4.73
2018-09-25T03:15:40.526Z,5.23
2018-09-25T03:18:14.642Z,5.90
2018-09-25T03:20:48.512Z,5.27
2018-09-25T03:23:22.323Z,7.47
2018-09-25T03:25:56.060Z,7.27
2018-09-25T03:28:29.970Z,11.00
2018-09-25T03:31:03.645Z,9.73
2018-09-25T03:33:37.515Z,10.70
2018-09-25T03:36:11.164Z,9.70
2018-09-25T03:38:45.216Z,6.10
2018-09-25T03:41:19.323Z,7.73
2018-09-25T03:43:53.298Z,9.73
2018-09-25T03:46:27.362Z,4.87
2018-09-25T03:49:01.501Z,7.70
2018-09-25T03:51:35.513Z,6.97
2018-09-25T03:54:09.491Z,4.70
2018-09-25T03:56:43.407Z,5.60
2018-09-25T03:59:17.203Z,8.40
2018-09-25T04:01:51.123Z,6.17
2018-09-25T04:04:25.078Z,7.10
2018-09-25T04:06:58.955Z,10.30
2018-09-25T04:09:32.891Z,6.67
2018-09-25T04:12:06.893Z,8.20
2018-09-25T04:14:40.844Z,6.33
2018-09-25T04:17:14.804Z,6.73
2018-09-25T04:19:48.722Z,4.63
2018-09-25T04:22:22.682Z,8.97
2018-09-25T04:24:56.473Z,6.73
2018-09-25T04:27:30.510Z,13.97
2018-09-25T04:30:04.498Z,5.17
2018-09-25T04:32:38.484Z,5.67
2018-09-25T04:35:12.514Z,6.63
2018-09-25T04:37:46.369Z,7.53
2018-09-25T04:40:20.444Z,9.03
2018-09-25T04:42:54.336Z,5.93
2018-09-25T04:45:27.968Z,6.73
2018-09-25T04:48:01.794Z,7.03
2018-09-25T04:50:35.641Z,7.23
2018-09-25T04:53:09.647Z,5.70
2018-09-25T04:55:43.477Z,4.83
2018-09-25T04:58:17.455Z,5.60
2018-09-25T05:00:51.314Z,4.37
2018-09-25T05:03:25.263Z,3.00
2018-09-25T05:05:59.270Z,5.43
2018-09-25T05:08:33.214Z,5.43
2018-09-25T05:11:07.103Z,5.60
2018-09-25T05:13:41.052Z,4.83
2018-09-25T05:16:14.989Z,4.30
2018-09-25T05:18:49.441Z,7.77
2018-09-25T05:21:23.035Z,3.43
2018-09-25T05:23:56.918Z,5.07
2018-09-25T05:26:30.608Z,6.07
2018-09-25T05:29:04.502Z,4.03
2018-09-25T05:31:38.107Z,4.77
2018-09-25T05:34:11.910Z,6.90
2018-09-25T05:36:45.712Z,6.47
2018-09-25T05:39:19.369Z,4.03
2018-09-25T05:41:53.042Z,6.67
2018-09-25T05:44:26.728Z,3.40
2018-09-25T05:47:00.578Z,5.10
2018-09-25T05:49:34.530Z,4.53
2018-09-25T05:52:08.396Z,4.83
2018-09-25T05:54:42.404Z,4.30
2018-09-25T05:57:16.205Z,6.73
2018-09-25T05:59:50.218Z,8.10
2018-09-25T06:02:24.090Z,4.90
2018-09-25T06:04:57.935Z,7.00
2018-09-25T06:07:31.759Z,4.83
2018-09-25T06:10:05.286Z,6.67
2018-09-25T06:12:39.193Z,6.77
2018-09-25T06:15:13.630Z,4.90
2018-09-25T06:17:47.286Z,3.77
2018-09-25T06:20:21.210Z,5.03
2018-09-25T06:22:55.094Z,4.37
2018-09-25T06:25:28.654Z,4.07
2018-09-25T06:28:02.910Z,4.73
2018-09-25T06:30:36.466Z,5.67
2018-09-25T06:33:10.339Z,7.63
2018-09-25T06:35:44.381Z,5.60
2018-09-25T06:38:18.137Z,5.93
2018-09-25T06:40:52.229Z,7.63
2018-09-25T06:43:25.792Z,7.17
2018-09-25T06:45:59.704Z,5.43
2018-09-25T06:48:33.770Z,5.10
2018-09-25T06:51:07.800Z,4.40
2018-09-25T06:53:41.543Z,5.80
2018-09-25T06:56:15.152Z,7.60
2018-09-25T06:58:48.930Z,8.73
2018-09-25T07:01:22.864Z,8.27
2018-09-25T07:03:56.636Z,11.37
2018-09-25T07:06:30.507Z,8.53
2018-09-25T07:09:04.361Z,11.43
2018-09-25T07:11:38.293Z,8.30
2018-09-25T07:14:12.186Z,8.23
2018-09-25T07:16:46.185Z,8.57
2018-09-25T07:19:20.152Z,8.47
2018-09-25T07:21:54.223Z,7.40
2018-09-25T07:24:27.925Z,8.67
2018-09-25T07:27:01.841Z,7.47
2018-09-25T07:29:35.834Z,7.57
2018-09-25T07:32:09.577Z,10.03
2018-09-25T07:34:43.566Z,8.70
2018-09-25T07:37:17.527Z,8.70
2018-09-25T07:39:51.508Z,7.53
2018-09-25T07:42:25.376Z,5.20
2018-09-25T07:44:59.293Z,8.43
2018-09-25T07:47:33.318Z,6.97
2018-09-25T07:50:06.962Z,7.43
2018-09-25T07:52:40.915Z,8.33
2018-09-25T07:55:14.921Z,6.23
2018-09-25T07:57:48.929Z,9.07
2018-09-25T08:00:22.809Z,7.53
2018-09-25T08:02:56.785Z,6.70
2018-09-25T08:05:30.538Z,8.00
2018-09-25T08:08:04.295Z,8.73
2018-09-25T08:10:38.343Z,6.20
2018-09-25T08:13:12.235Z,7.33
2018-09-25T08:15:46.186Z,6.70
2018-09-25T08:18:20.060Z,6.00
2018-09-25T08:20:53.986Z,9.13
2018-09-25T08:23:27.852Z,6.33
2018-09-25T08:26:01.609Z,10.97
2018-09-25T08:28:35.657Z,9.37
2018-09-25T08:31:09.621Z,6.40
2018-09-25T08:33:43.261Z,10.47
2018-09-25T08:36:17.134Z,7.67
2018-09-25T08:38:51.104Z,6.47
2018-09-25T08:41:24.948Z,6.87
2018-09-25T08:43:58.712Z,8.73
2018-09-25T08:46:32.507Z,7.17
2018-09-25T08:49:06.405Z,8.27
2018-09-25T08:51:40.285Z,5.70
2018-09-25T08:54:14.252Z,7.67
2018-09-25T08:56:48.223Z,5.90
2018-09-25T08:59:22.023Z,6.30
2018-09-25T09:01:56.013Z,7.13
2018-09-25T09:04:29.990Z,8.83
2018-09-25T09:07:03.993Z,8.90
2018-09-25T09:09:37.887Z,6.03
2018-09-25T09:12:11.952Z,5.97
2018-09-25T09:14:45.433Z,5.60
2018-09-25T09:17:19.351Z,7.27
2018-09-25T09:19:53.305Z,5.23
2018-09-25T09:22:27.236Z,5.17
2018-09-25T09:25:01.043Z,5.47
2018-09-25T09:27:34.899Z,5.60
2018-09-25T09:30:08.989Z,6.33
2018-09-25T09:32:43.089Z,4.63
2018-09-25T09:35:16.854Z,6.20
2018-09-25T09:37:50.855Z,4.67
2018-09-25T09:40:24.938Z,6.03
2018-09-25T09:42:58.882Z,4.70
2018-09-25T09:45:32.783Z,8.17
2018-09-25T09:48:06.711Z,4.27
2018-09-25T09:50:40.382Z,4.40
2018-09-25T09:53:14.283Z,4.47
2018-09-25T09:55:48.174Z,5.73
2018-09-25T09:58:21.963Z,4.37
2018-09-25T10:00:55.714Z,4.80
2018-09-25T10:03:29.424Z,6.57
2018-09-25T10:06:03.340Z,4.63
2018-09-25T10:08:37.031Z,4.53
2018-09-25T10:11:11.076Z,4.60
2018-09-25T10:13:45.099Z,5.17
2018-09-25T10:16:19.143Z,3.80
2018-09-25T10:18:53.033Z,5.17
2018-09-25T10:21:26.635Z,4.57
2018-09-25T10:24:00.575Z,4.40
2018-09-25T10:26:34.439Z,3.03
2018-09-25T10:29:08.314Z,5.70
2018-09-25T10:31:42.350Z,3.07
2018-09-25T10:34:16.276Z,7.63
2018-09-25T10:36:49.816Z,4.27
2018-09-25T10:39:23.685Z,4.13
2018-09-25T10:41:57.380Z,4.83
2018-09-25T10:44:30.915Z,4.33
2018-09-25T10:47:04.925Z,3.07
2018-09-25T10:49:38.873Z,3.17
2018-09-25T10:52:12.737Z,3.50
2018-09-25T10:54:46.750Z,3.03
2018-09-25T10:57:20.751Z,3.00
2018-09-25T10:59:54.734Z,2.03
2018-09-25T11:02:28.581Z,3.30
2018-09-25T11:05:02.631Z,5.23
2018-09-25T11:07:36.648Z,3.40
2018-09-25T11:10:10.729Z,4.03
2018-09-25T11:12:44.813Z,3.40
2018-09-25T11:15:18.487Z,2.00
2018-09-25T11:17:52.181Z,2.23
2018-09-25T11:20:26.040Z,5.33
2018-09-25T11:23:00.069Z,3.50
2018-09-25T11:25:34.103Z,2.70
2018-09-25T11:28:07.947Z,3.20
2018-09-25T11:30:41.984Z,2.87
2018-09-25T11:33:15.924Z,2.40
2018-09-25T11:35:49.823Z,5.40
2018-09-25T11:38:23.868Z,5.90
2018-09-25T11:40:57.880Z,2.70
2018-09-25T11:43:31.400Z,3.83
2018-09-25T11:46:05.589Z,1.90
2018-09-25T11:48:39.579Z,1.00
2018-09-25T11:51:14.484Z,3.50
2018-09-25T11:53:48.465Z,3.53
2018-09-25T11:56:22.498Z,3.80
2018-09-25T11:58:56.457Z,2.83
2018-09-25T12:01:30.201Z,5.63
2018-09-25T12:04:04.183Z,4.07
2018-09-25T12:06:37.965Z,3.00
2018-09-25T12:09:13.322Z,2.43
2018-09-25T12:11:47.315Z,2.30
2018-09-25T12:14:21.246Z,1.67
2018-09-25T12:16:54.863Z,1.90
2018-09-25T12:19:28.617Z,2.33
2018-09-25T12:22:02.700Z,4.67
2018-09-25T12:24:36.744Z,5.93
2018-09-25T12:27:10.528Z,4.17
2018-09-25T12:29:44.652Z,4.03
2018-09-25T12:32:18.546Z,1.83
2018-09-25T12:34:52.622Z,2.17
2018-09-25T12:37:26.583Z,2.47
2018-09-25T12:40:00.620Z,3.00
2018-09-25T12:42:34.621Z,2.60
2018-09-25T12:45:08.595Z,2.42
2018-09-25T12:47:42.494Z,6.35
2018-09-25T12:50:16.418Z,2.95
2018-09-25T12:52:50.275Z,1.85
2018-09-25T12:55:24.135Z,4.62
2018-09-25T12:57:57.808Z,2.63
2018-09-25T13:00:31.442Z,2.40
2018-09-25T13:03:05.198Z,3.70
2018-09-25T13:05:38.847Z,4.73
2018-09-25T13:08:12.846Z,3.15
2018-09-25T13:10:46.485Z,2.50
2018-09-25T13:13:20.318Z,2.85
2018-09-25T13:15:54.078Z,5.50
2018-09-25T13:18:27.825Z,3.50
2018-09-25T13:21:01.438Z,4.40
2018-09-25T13:23:35.397Z,2.85
2018-09-25T13:26:09.405Z,3.83
2018-09-25T13:28:43.463Z,3.00
2018-09-25T13:31:17.357Z,5.28
2018-09-25T13:33:51.230Z,4.00
2018-09-25T13:36:25.254Z,4.95
2018-09-25T13:38:59.209Z,3.22
2018-09-25T13:41:33.111Z,2.37
2018-09-25T13:44:07.321Z,3.83
2018-09-25T13:46:41.294Z,5.53
2018-09-25T13:49:15.279Z,6.85
2018-09-25T13:51:48.925Z,4.90
2018-09-25T13:54:22.939Z,4.17
2018-09-25T13:56:56.639Z,6.22
2018-09-25T13:59:30.576Z,4.60
2018-09-25T14:02:04.502Z,5.50
2018-09-25T14:04:38.739Z,3.93
2018-09-25T14:07:12.734Z,4.03
2018-09-25T14:09:46.799Z,2.73
2018-09-25T14:12:20.673Z,3.17
2018-09-25T14:14:54.562Z,3.37
2018-09-25T14:17:28.466Z,2.30
2018-09-25T14:20:02.426Z,2.70
2018-09-25T14:22:36.462Z,5.77
2018-09-25T14:25:10.542Z,4.55
2018-09-25T14:27:44.473Z,2.70
2018-09-25T14:30:18.419Z,1.67
2018-09-25T14:32:52.277Z,1.35
2018-09-25T14:35:26.268Z,2.20
2018-09-25T14:38:00.052Z,1.57
2018-09-25T14:40:33.950Z,2.80
2018-09-25T14:43:07.952Z,6.93
2018-09-25T14:45:41.872Z,2.97
2018-09-25T14:48:15.885Z,3.13
2018-09-25T14:50:49.895Z,2.13
2018-09-25T14:53:23.804Z,2.70
2018-09-25T14:55:57.739Z,3.40
2018-09-25T14:58:31.637Z,1.47
2018-09-25T15:01:05.585Z,3.03
2018-09-25T15:03:39.436Z,3.67
2018-09-25T15:06:13.440Z,3.03
2018-09-25T15:08:47.346Z,2.33
2018-09-25T15:11:21.320Z,4.37
2018-09-25T15:13:55.171Z,2.33
2018-09-25T15:16:28.910Z,3.73
2018-09-25T15:19:02.925Z,3.42
2018-09-25T15:21:37.032Z,1.72
2018-09-25T15:24:11.018Z,3.02
2018-09-25T15:26:44.792Z,3.27
2018-09-25T15:29:18.765Z,2.72
2018-09-25T15:31:52.638Z,3.40
2018-09-25T15:34:26.645Z,5.45
2018-09-25T15:37:00.494Z,3.47
2018-09-25T15:39:34.380Z,7.08
2018-09-25T15:42:08.379Z,2.27
2018-09-25T15:44:42.272Z,3.42
2018-09-25T15:47:16.354Z,2.83
2018-09-25T15:49:50.348Z,2.80
2018-09-25T15:52:24.233Z,1.75
2018-09-25T15:54:58.211Z,2.15
2018-09-25T15:57:31.888Z,3.60
2018-09-25T16:00:05.790Z,0.90
2018-09-25T16:02:39.772Z,3.17
2018-09-25T16:05:13.741Z,1.70
2018-09-25T16:07:47.392Z,2.25
2018-09-25T16:10:21.461Z,3.40
2018-09-25T16:12:55.335Z,3.60
2018-09-25T16:15:28.953Z,1.95
2018-09-25T16:18:02.818Z,2.77
2018-09-25T16:20:36.759Z,1.55
2018-09-25T16:23:10.689Z,1.55
2018-09-25T16:25:44.644Z,3.87
2018-09-25T16:28:18.573Z,3.13
2018-09-25T16:30:52.591Z,5.50
2018-09-25T16:33:26.579Z,2.83
2018-09-25T16:36:00.289Z,2.30
2018-09-25T16:38:34.346Z,2.27
2018-09-25T16:41:08.264Z,2.10
2018-09-25T16:43:41.831Z,0.80
2018-09-25T16:46:15.723Z,2.97
2018-09-25T16:48:49.276Z,3.33
2018-09-25T16:51:23.156Z,1.70
2018-09-25T16:53:57.071Z,2.87
2018-09-25T16:56:31.619Z,3.67
2018-09-25T16:59:05.559Z,3.60
2018-09-25T17:01:40.062Z,2.57
2018-09-25T17:04:14.107Z,2.57
2018-09-25T17:06:48.172Z,2.03
2018-09-25T17:09:22.159Z,3.13
2018-09-25T17:11:56.093Z,2.47
2018-09-25T17:14:30.018Z,3.10
2018-09-25T17:17:04.116Z,1.87
2018-09-25T17:19:38.073Z,1.50
2018-09-25T17:22:12.206Z,1.67
2018-09-25T17:24:45.829Z,1.20
2018-09-25T17:27:19.762Z,2.10
2018-09-25T17:29:53.378Z,2.13
2018-09-25T17:32:27.304Z,1.93
2018-09-25T17:35:01.195Z,1.50
2018-09-25T17:37:35.149Z,2.97
2018-09-25T17:40:09.031Z,5.50
2018-09-25T17:42:49.484Z,3.50
2018-09-25T17:45:23.520Z,4.40
2018-09-25T17:47:57.369Z,4.10
2018-09-25T17:50:31.015Z,3.53
2018-09-25T17:53:05.103Z,2.60
2018-09-25T17:55:39.173Z,3.57
2018-09-25T17:58:13.245Z,1.93
2018-09-25T18:00:47.353Z,4.07
2018-09-25T18:03:21.190Z,4.07
2018-09-25T18:05:55.031Z,2.57
2018-09-25T18:08:28.913Z,3.23
2018-09-25T18:11:02.893Z,4.60
2018-09-25T18:13:36.733Z,3.70
2018-09-25T18:16:11.058Z,2.70
2018-09-25T18:18:44.999Z,5.70
2018-09-25T18:21:25.957Z,13.97
2018-09-25T18:23:59.875Z,16.60
2018-09-25T18:26:33.946Z,26.40
2018-09-25T18:29:07.760Z,91.53
2018-09-25T18:31:41.495Z,157.07
2018-09-25T18:34:15.305Z,175.43
2018-09-25T18:36:48.982Z,159.43
2018-09-25T18:39:23.015Z,148.67
2018-09-25T18:41:56.890Z,100.83
2018-09-25T18:44:30.902Z,64.93
2018-09-25T18:47:04.919Z,47.17
2018-09-25T18:49:38.964Z,66.33
2018-09-25T18:52:13.029Z,49.10
2018-09-25T18:54:46.658Z,31.87
2018-09-25T18:57:20.646Z,125.83
2018-09-25T18:59:54.551Z,74.70
2018-09-25T19:02:28.704Z,28.13
2018-09-25T19:05:02.798Z,9.93
2018-09-25T19:07:36.582Z,10.80
2018-09-25T19:10:10.569Z,9.37
2018-09-25T19:12:44.455Z,10.30
2018-09-25T19:15:18.417Z,10.03
2018-09-25T19:17:52.482Z,10.37
2018-09-25T19:20:26.448Z,9.27
2018-09-25T19:23:00.292Z,10.13
2018-09-25T19:25:34.328Z,11.40
2018-09-25T19:28:08.390Z,15.80
2018-09-25T19:30:42.295Z,24.40
2018-09-25T19:33:15.992Z,22.80
2018-09-25T19:35:50.159Z,17.80
2018-09-25T19:38:24.228Z,19.73
2018-09-25T19:40:58.317Z,9.00
2018-09-25T19:43:32.174Z,7.00
2018-09-25T19:46:06.156Z,5.13
2018-09-25T19:48:40.066Z,5.53
2018-09-25T19:51:14.027Z,4.97
2018-09-25T19:53:47.533Z,7.17
2018-09-25T19:56:21.360Z,4.03
2018-09-25T19:58:55.201Z,5.40
2018-09-25T20:01:29.187Z,5.43
2018-09-25T20:04:03.105Z,5.07
2018-09-25T20:06:37.177Z,6.67
2018-09-25T20:09:13.390Z,21.17
2018-09-25T20:11:47.659Z,37.83
2018-09-25T20:14:21.657Z,86.07
2018-09-25T20:16:55.595Z,185.23
2018-09-25T20:19:29.315Z,131.53
2018-09-25T20:22:03.268Z,148.13
2018-09-25T20:24:37.118Z,97.07
2018-09-25T20:27:10.996Z,64.30
2018-09-25T20:29:44.916Z,59.10
2018-09-25T20:32:18.728Z,48.07
2018-09-25T20:34:52.647Z,41.80
2018-09-25T20:37:26.366Z,33.40
2018-09-25T20:40:00.173Z,27.33
2018-09-25T20:42:34.159Z,16.77
2018-09-25T20:45:08.107Z,20.83
2018-09-25T20:47:41.961Z,27.33
2018-09-25T20:50:15.838Z,22.20
2018-09-25T20:52:49.737Z,21.23
2018-09-25T20:55:23.596Z,22.90
2018-09-25T20:57:57.619Z,19.77
2018-09-25T21:00:31.407Z,14.83
2018-09-25T21:03:05.368Z,17.23
2018-09-25T21:05:39.355Z,11.83
2018-09-25T21:08:13.024Z,5.10
2018-09-25T21:10:46.706Z,6.40
2018-09-25T21:13:20.692Z,7.27
2018-09-25T21:15:54.609Z,11.77
2018-09-25T21:18:28.553Z,8.93
2018-09-25T21:21:02.139Z,7.57
2018-09-25T21:23:36.072Z,5.73
2018-09-25T21:26:10.000Z,4.13
2018-09-25T21:28:44.289Z,5.97
2018-09-25T21:31:18.126Z,5.23
2018-09-25T21:33:52.161Z,3.80
2018-09-25T21:36:26.095Z,4.77
2018-09-25T21:39:00.170Z,6.33
2018-09-25T21:41:34.167Z,4.87
2018-09-25T21:44:08.206Z,5.50
2018-09-25T21:46:42.250Z,8.63
2018-09-25T21:49:16.110Z,8.27
2018-09-25T21:51:49.800Z,4.43
2018-09-25T21:54:23.690Z,4.80
2018-09-25T21:56:57.767Z,3.83
2018-09-25T21:59:31.500Z,6.27
2018-09-25T22:02:05.692Z,6.30
2018-09-25T22:04:39.392Z,4.17
2018-09-25T22:07:13.463Z,5.27
2018-09-25T22:09:47.389Z,7.13
2018-09-25T22:12:21.293Z,5.17
2018-09-25T22:14:55.033Z,4.07
2018-09-25T22:17:29.130Z,4.17
2018-09-25T22:20:03.134Z,6.77
2018-09-25T22:22:37.467Z,4.07
2018-09-25T22:25:11.483Z,6.10
2018-09-25T22:27:45.677Z,5.23
2018-09-25T22:30:19.496Z,5.50
2018-09-25T22:32:53.073Z,3.97
2018-09-25T22:35:26.927Z,6.70
2018-09-25T22:38:00.756Z,5.40
2018-09-25T22:40:34.595Z,6.63
2018-09-25T22:43:08.657Z,6.70
2018-09-25T22:45:42.528Z,5.10
2018-09-25T22:48:16.440Z,6.40
2018-09-25T22:50:50.461Z,6.80
2018-09-25T22:53:24.444Z,6.43
2018-09-25T22:55:58.408Z,5.87
2018-09-25T22:58:32.390Z,6.13
2018-09-25T23:01:06.236Z,4.87
2018-09-25T23:03:40.143Z,5.73
2018-09-25T23:06:14.047Z,4.47
2018-09-25T23:08:47.968Z,4.70
2018-09-25T23:11:21.790Z,5.27
2018-09-25T23:13:55.658Z,5.83
2018-09-25T23:16:29.268Z,6.07
2018-09-25T23:19:03.166Z,4.23
2018-09-25T23:21:36.869Z,7.40
2018-09-25T23:24:10.718Z,4.73
2018-09-25T23:26:44.633Z,5.23
2018-09-25T23:29:18.590Z,4.10
2018-09-25T23:31:52.499Z,5.33
2018-09-25T23:34:26.481Z,6.17
2018-09-25T23:37:00.369Z,6.17
2018-09-25T23:39:34.457Z,7.17
2018-09-25T23:42:15.338Z,6.80
2018-09-25T23:44:51.434Z,4.77
2018-09-25T23:47:41.314Z,5.60
2018-09-25T23:50:15.790Z,5.27
2018-09-25T23:54:53.201Z,4.20
2018-09-25T23:57:25.856Z,4.80
